createdAt,value
2019-04-05T00:02:22.242Z,3.80
2019-04-05T00:05:02.454Z,3.90
2019-04-05T00:07:42.988Z,3.90
2019-04-05T00:13:35.430Z,3.90
2019-04-05T00:16:15.893Z,4.00
2019-04-05T00:18:56.453Z,3.90
2019-04-05T00:21:36.325Z,4.00
2019-04-05T00:24:16.546Z,4.00
2019-04-05T00:26:56.806Z,3.90
2019-04-05T00:29:24.446Z,4.10
2019-04-05T00:32:11.486Z,4.00
2019-04-05T00:34:58.662Z,3.80
2019-04-05T00:37:38.435Z,4.00
2019-04-05T00:40:18.647Z,3.90
2019-04-05T00:42:58.519Z,4.00
2019-04-05T00:45:38.641Z,3.90
2019-04-05T00:48:19.082Z,4.00
2019-04-05T00:50:59.249Z,4.00
2019-04-05T00:53:39.290Z,3.90
2019-04-05T00:56:19.244Z,3.90
2019-04-05T00:58:59.274Z,4.20
2019-04-05T01:01:39.409Z,3.90
2019-04-05T01:04:19.798Z,4.30
2019-04-05T01:06:59.690Z,4.10
2019-04-05T01:09:39.771Z,4.10
2019-04-05T01:12:20.503Z,4.10
2019-04-05T01:15:00.306Z,4.00
2019-04-05T01:17:40.450Z,4.00
2019-04-05T01:20:21.018Z,4.10
2019-04-05T01:23:01.058Z,4.20
2019-04-05T01:25:41.356Z,4.30
2019-04-05T01:28:21.529Z,4.30
2019-04-05T01:31:01.698Z,4.20
2019-04-05T01:33:41.678Z,4.10
2019-04-05T01:36:21.828Z,3.90
2019-04-05T01:39:02.029Z,3.90
2019-04-05T01:41:42.334Z,3.90
2019-04-05T01:44:22.369Z,4.00
2019-04-05T01:47:02.561Z,3.90
2019-04-05T01:49:42.644Z,3.80
2019-04-05T01:52:22.789Z,3.90
2019-04-05T01:55:02.530Z,3.90
2019-04-05T01:57:42.655Z,3.90
2019-04-05T02:00:22.655Z,3.90
2019-04-05T02:03:02.997Z,4.00
2019-04-05T02:05:43.185Z,4.00
2019-04-05T02:08:23.462Z,3.90
2019-04-05T02:11:03.886Z,4.20
2019-04-05T02:13:43.782Z,4.10
2019-04-05T02:16:24.159Z,4.10
2019-04-05T02:19:04.116Z,4.00
2019-04-05T02:21:44.254Z,4.00
2019-04-05T02:24:24.320Z,3.90
2019-04-05T02:27:04.705Z,4.00
2019-04-05T02:29:44.906Z,4.00
2019-04-05T02:32:24.925Z,4.00
2019-04-05T02:35:05.120Z,4.10
2019-04-05T02:37:45.170Z,4.10
2019-04-05T02:40:25.459Z,4.10
2019-04-05T02:43:05.873Z,4.00
2019-04-05T02:45:46.192Z,4.00
2019-04-05T02:48:26.281Z,4.00
2019-04-05T02:51:15.092Z,4.10
2019-04-05T02:53:55.496Z,4.00
2019-04-05T02:56:35.565Z,4.00
2019-04-05T02:59:15.714Z,4.00
2019-04-05T03:01:55.994Z,4.10
2019-04-05T03:04:36.199Z,4.20
2019-04-05T03:07:16.898Z,4.10
2019-04-05T03:09:57.437Z,4.10
2019-04-05T03:12:37.825Z,4.10
2019-04-05T03:15:17.995Z,4.20
2019-04-05T03:17:58.079Z,3.70
2019-04-05T03:20:38.763Z,4.20
2019-04-05T03:23:18.535Z,4.20
2019-04-05T03:25:58.514Z,4.10
2019-04-05T03:28:38.792Z,4.10
2019-04-05T03:31:24.569Z,3.90
2019-04-05T03:34:01.183Z,4.20
2019-04-05T03:36:41.246Z,4.30
2019-04-05T03:39:21.527Z,4.20
2019-04-05T03:42:01.909Z,4.20
2019-04-05T03:44:42.213Z,4.20
2019-04-05T03:47:22.189Z,4.20
2019-04-05T03:50:02.334Z,4.20
2019-04-05T03:52:42.594Z,4.20
2019-04-05T03:55:22.691Z,4.30
2019-04-05T03:58:02.756Z,4.20
2019-04-05T04:00:42.911Z,4.20
2019-04-05T04:03:23.054Z,4.30
2019-04-05T04:06:02.942Z,4.40
2019-04-05T04:08:43.069Z,4.30
2019-04-05T04:11:23.173Z,4.40
2019-04-05T04:14:03.252Z,4.30
2019-04-05T04:16:43.315Z,4.40
2019-04-05T04:19:23.559Z,4.40
2019-04-05T04:22:03.697Z,5.10
2019-04-05T04:24:44.343Z,4.40
2019-04-05T04:27:24.278Z,4.30
2019-04-05T04:30:04.360Z,4.50
2019-04-05T04:32:44.300Z,4.40
2019-04-05T04:35:24.287Z,4.30
2019-04-05T04:38:04.476Z,4.50
2019-04-05T04:40:44.710Z,4.20
2019-04-05T04:43:24.722Z,4.20
2019-04-05T04:46:04.874Z,4.10
2019-04-05T04:48:45.158Z,4.20
2019-04-05T04:51:25.117Z,4.40
2019-04-05T04:54:05.238Z,4.30
2019-04-05T04:56:45.334Z,4.50
2019-04-05T04:59:25.495Z,4.50
2019-04-05T05:02:05.776Z,4.40
2019-04-05T05:04:45.963Z,4.30
2019-04-05T05:07:25.922Z,3.80
2019-04-05T05:10:05.861Z,4.30
2019-04-05T05:12:46.101Z,4.40
2019-04-05T05:15:27.392Z,4.20
2019-04-05T05:18:07.166Z,4.50
2019-04-05T05:20:47.415Z,4.50
2019-04-05T05:23:27.618Z,4.40
2019-04-05T05:26:07.881Z,4.30
2019-04-05T05:28:47.793Z,4.40
2019-04-05T05:31:28.149Z,4.40
2019-04-05T05:34:08.447Z,4.50
2019-04-05T05:40:01.094Z,4.50
2019-04-05T05:42:28.854Z,4.70
2019-04-05T05:45:16.073Z,4.50
2019-04-05T05:48:03.141Z,4.60
2019-04-05T05:50:43.501Z,4.60
2019-04-05T05:53:23.754Z,4.90
2019-04-05T05:56:04.001Z,5.00
2019-04-05T05:58:44.173Z,5.00
2019-04-05T06:01:24.573Z,5.10
2019-04-05T06:04:04.349Z,4.90
2019-04-05T06:06:44.504Z,5.10
2019-04-05T06:09:24.831Z,5.00
2019-04-05T06:12:04.929Z,4.90
2019-04-05T06:14:45.024Z,4.80
2019-04-05T06:17:25.318Z,4.80
2019-04-05T06:20:05.474Z,5.00
2019-04-05T06:22:47.564Z,5.00
2019-04-05T06:25:27.680Z,4.90
2019-04-05T06:28:08.293Z,4.60
2019-04-05T06:30:48.037Z,5.00
2019-04-05T06:35:39.595Z,5.10
2019-04-05T06:36:10.569Z,5.40
2019-04-05T06:38:50.757Z,5.40
2019-04-05T06:41:30.966Z,5.50
2019-04-05T06:44:11.091Z,5.40
2019-04-05T06:46:51.909Z,5.30
2019-04-05T06:49:32.085Z,5.30
2019-04-05T06:52:11.909Z,5.30
2019-04-05T06:54:52.002Z,5.40
2019-04-05T06:57:32.196Z,5.50
2019-04-05T07:00:12.261Z,5.50
2019-04-05T07:02:52.333Z,5.80
2019-04-05T07:05:32.241Z,5.70
2019-04-05T07:08:12.323Z,5.60
2019-04-05T07:10:51.976Z,5.60
2019-04-05T07:13:32.072Z,5.70
2019-04-05T07:16:12.307Z,5.80
2019-04-05T07:18:52.863Z,5.80
2019-04-05T07:21:33.902Z,6.00
2019-04-05T07:24:05.305Z,6.50
2019-04-05T07:26:53.161Z,6.50
2019-04-05T07:29:32.916Z,6.70
2019-04-05T07:32:12.769Z,6.70
2019-04-05T07:34:52.990Z,7.20
2019-04-05T07:37:20.899Z,7.50
2019-04-05T07:40:08.026Z,7.90
2019-04-05T07:42:55.186Z,8.20
2019-04-05T07:45:33.337Z,8.70
2019-04-05T07:48:20.593Z,9.10
2019-04-05T07:51:01.186Z,9.00
2019-04-05T07:53:41.197Z,9.10
2019-04-05T07:56:21.525Z,9.20
2019-04-05T07:59:02.466Z,9.30
2019-04-05T08:01:42.613Z,9.00
2019-04-05T08:04:22.678Z,8.90
2019-04-05T08:07:02.727Z,9.00
2019-04-05T08:09:42.933Z,9.20
2019-04-05T08:12:22.882Z,9.20
2019-04-05T08:18:04.265Z,8.90
2019-04-05T08:20:44.610Z,8.60
2019-04-05T08:23:24.930Z,8.30
2019-04-05T08:26:05.005Z,8.70
2019-04-05T08:28:45.134Z,8.80
2019-04-05T08:31:25.402Z,8.80
2019-04-05T08:34:05.353Z,8.70
2019-04-05T08:36:45.418Z,8.70
2019-04-05T08:39:25.502Z,9.10
2019-04-05T08:42:05.501Z,9.10
2019-04-05T08:44:45.718Z,9.40
2019-04-05T08:47:25.782Z,9.70
2019-04-05T08:50:05.903Z,9.90
2019-04-05T08:52:46.001Z,10.30
2019-04-05T08:55:26.109Z,10.20
2019-04-05T08:57:53.985Z,10.50
2019-04-05T09:00:41.036Z,10.80
2019-04-05T09:03:28.087Z,11.10
2019-04-05T09:06:08.553Z,11.50
2019-04-05T09:08:48.741Z,11.30
2019-04-05T09:11:28.964Z,11.40
2019-04-05T09:14:09.208Z,11.30
2019-04-05T09:16:49.352Z,11.20
2019-04-05T09:19:29.470Z,11.10
2019-04-05T09:22:09.763Z,11.00
2019-04-05T09:27:36.412Z,10.90
2019-04-05T09:30:23.451Z,11.00
2019-04-05T09:33:10.453Z,11.10
2019-04-05T09:35:50.318Z,11.50
2019-04-05T09:38:30.525Z,12.00
2019-04-05T09:41:10.634Z,12.40
2019-04-05T09:43:50.593Z,12.70
2019-04-05T09:46:30.997Z,12.90
2019-04-05T09:48:58.656Z,13.10
2019-04-05T09:54:38.633Z,13.20
2019-04-05T09:57:18.213Z,13.50
2019-04-05T09:59:58.522Z,13.50
2019-04-05T10:02:38.531Z,13.60
2019-04-05T10:05:19.094Z,13.50
2019-04-05T10:07:59.076Z,13.50
2019-04-05T10:10:39.927Z,13.50
2019-04-05T10:13:20.276Z,13.30
2019-04-05T10:16:00.501Z,13.60
2019-04-05T10:18:28.151Z,13.60
2019-04-05T10:21:15.491Z,13.60
2019-04-05T10:24:02.657Z,13.80
2019-04-05T10:26:42.896Z,13.80
2019-04-05T10:29:23.145Z,13.50
2019-04-05T10:32:03.719Z,13.50
2019-04-05T10:34:43.552Z,13.60
2019-04-05T10:37:23.828Z,13.40
2019-04-05T10:40:04.225Z,13.40
2019-04-05T10:42:44.205Z,13.20
2019-04-05T10:45:24.333Z,13.10
2019-04-05T10:48:04.790Z,13.00
2019-04-05T10:50:45.699Z,13.00
2019-04-05T10:53:26.138Z,13.00
2019-04-05T10:56:06.243Z,13.00
2019-04-05T10:58:46.262Z,12.90
2019-04-05T11:01:26.450Z,13.00
2019-04-05T11:04:06.313Z,12.90
2019-04-05T11:06:46.489Z,12.90
2019-04-05T11:09:26.754Z,12.70
2019-04-05T11:12:08.666Z,12.80
2019-04-05T11:14:49.059Z,13.00
2019-04-05T11:17:29.027Z,12.80
2019-04-05T11:20:20.718Z,12.80
2019-04-05T11:22:51.487Z,12.70
2019-04-05T11:25:31.611Z,13.10
2019-04-05T11:28:11.544Z,13.00
2019-04-05T11:30:51.987Z,13.10
2019-04-05T11:33:32.147Z,12.80
2019-04-05T11:36:13.843Z,12.90
2019-04-05T11:38:52.466Z,13.10
2019-04-05T11:41:32.994Z,13.50
2019-04-05T11:44:13.010Z,13.70
2019-04-05T11:46:53.198Z,14.10
2019-04-05T11:49:33.318Z,14.40
2019-04-05T11:52:13.660Z,14.60
2019-04-05T11:54:53.647Z,14.90
2019-04-05T11:57:34.213Z,15.00
2019-04-05T12:00:19.022Z,15.20
2019-04-05T12:03:02.890Z,15.20
2019-04-05T12:05:42.603Z,15.30
2019-04-05T12:08:22.898Z,15.00
2019-04-05T12:11:02.898Z,14.90
2019-04-05T12:13:42.978Z,15.20
2019-04-05T12:16:23.489Z,16.10
2019-04-05T12:19:04.757Z,17.00
2019-04-05T12:21:45.602Z,18.10
2019-04-05T12:24:25.897Z,19.10
2019-04-05T12:27:05.797Z,20.00
2019-04-05T12:29:45.947Z,21.30
2019-04-05T12:32:34.497Z,21.90
2019-04-05T12:34:58.689Z,22.10
2019-04-05T12:37:50.481Z,22.00
2019-04-05T12:40:34.550Z,21.80
2019-04-05T12:43:14.585Z,22.70
2019-04-05T12:45:54.605Z,22.60
2019-04-05T12:48:34.564Z,22.30
2019-04-05T12:51:15.590Z,22.40
2019-04-05T12:53:56.749Z,22.90
2019-04-05T12:56:37.274Z,22.90
2019-04-05T12:59:06.770Z,22.90
2019-04-05T13:01:53.876Z,23.20
2019-04-05T13:04:40.886Z,23.50
2019-04-05T13:07:22.803Z,24.10
2019-04-05T13:10:03.063Z,24.50
2019-04-05T13:12:43.077Z,24.30
2019-04-05T13:15:23.108Z,24.20
2019-04-05T13:18:03.130Z,23.80
2019-04-05T13:20:43.770Z,23.40
2019-04-05T13:23:23.382Z,23.30
2019-04-05T13:26:03.643Z,23.10
2019-04-05T13:28:43.750Z,22.70
2019-04-05T13:31:23.887Z,22.40
2019-04-05T13:34:05.974Z,21.70
2019-04-05T13:36:46.350Z,21.10
2019-04-05T13:39:27.530Z,20.20
2019-04-05T13:42:08.512Z,19.40
2019-04-05T13:44:48.781Z,18.60
2019-04-05T13:47:29.207Z,17.90
2019-04-05T13:50:11.395Z,17.30
2019-04-05T13:52:49.333Z,16.80
2019-04-05T13:55:36.389Z,16.50
2019-04-05T13:58:16.453Z,16.10
2019-04-05T14:00:57.032Z,15.80
2019-04-05T14:03:37.209Z,15.50
2019-04-05T14:06:17.293Z,15.50
2019-04-05T14:08:57.476Z,15.50
2019-04-05T14:11:26.045Z,15.70
2019-04-05T14:14:14.126Z,16.10
2019-04-05T14:16:54.248Z,16.20
2019-04-05T14:19:34.141Z,16.20
2019-04-05T14:22:14.326Z,16.20
2019-04-05T14:24:56.627Z,16.20
2019-04-05T14:27:24.745Z,16.10
2019-04-05T14:30:13.613Z,16.00
2019-04-05T14:33:00.805Z,15.80
2019-04-05T14:35:41.789Z,15.70
2019-04-05T14:38:23.153Z,15.50
2019-04-05T14:41:03.312Z,15.30
2019-04-05T14:43:45.034Z,15.10
2019-04-05T14:46:28.102Z,15.10
2019-04-05T14:49:07.723Z,15.10
2019-04-05T14:51:54.905Z,14.90
2019-04-05T14:54:30.435Z,14.70
2019-04-05T14:57:10.961Z,14.50
2019-04-05T14:59:51.229Z,14.40
2019-04-05T15:02:31.353Z,14.20
2019-04-05T15:05:12.020Z,14.20
2019-04-05T15:07:54.886Z,14.10
2019-04-05T15:10:34.974Z,13.90
2019-04-05T15:13:15.086Z,13.80
2019-04-05T15:15:55.972Z,13.70
2019-04-05T15:18:38.113Z,13.40
2019-04-05T15:21:18.376Z,13.40
2019-04-05T15:23:58.633Z,13.60
2019-04-05T15:26:38.679Z,13.40
2019-04-05T15:29:06.487Z,13.30
2019-04-05T15:31:55.527Z,13.20
2019-04-05T15:34:42.402Z,13.30
2019-04-05T15:37:24.450Z,13.40
2019-04-05T15:40:04.301Z,13.30
2019-04-05T15:42:44.277Z,13.40
2019-04-05T15:45:24.543Z,13.30
2019-04-05T15:48:04.646Z,13.30
2019-04-05T15:50:44.754Z,13.40
2019-04-05T15:53:25.990Z,13.40
2019-04-05T15:56:06.168Z,13.00
2019-04-05T15:58:47.445Z,13.40
2019-04-05T16:01:27.661Z,13.30
2019-04-05T16:04:07.252Z,13.40
2019-04-05T16:06:47.586Z,13.50
2019-04-05T16:09:28.010Z,13.50
2019-04-05T16:12:08.210Z,13.60
2019-04-05T16:14:48.087Z,13.50
2019-04-05T16:17:28.187Z,13.60
2019-04-05T16:20:08.384Z,13.50
2019-04-05T16:22:48.394Z,13.50
2019-04-05T16:25:28.710Z,13.50
2019-04-05T16:28:08.913Z,13.50
2019-04-05T16:30:49.323Z,13.40
2019-04-05T16:33:29.473Z,13.40
2019-04-05T16:36:09.426Z,13.30
2019-04-05T16:38:49.578Z,13.20
2019-04-05T16:41:29.993Z,13.20
2019-04-05T16:44:10.247Z,13.10
2019-04-05T16:46:50.512Z,13.00
2019-04-05T16:49:30.806Z,13.00
2019-04-05T16:52:11.138Z,13.00
2019-04-05T16:54:51.339Z,12.90
2019-04-05T16:57:31.445Z,12.80
2019-04-05T17:00:12.041Z,12.80
2019-04-05T17:02:51.893Z,12.60
2019-04-05T17:05:31.942Z,12.50
2019-04-05T17:08:12.005Z,12.50
2019-04-05T17:10:52.145Z,12.50
2019-04-05T17:13:32.234Z,12.30
2019-04-05T17:16:12.449Z,12.20
2019-04-05T17:18:52.467Z,12.00
2019-04-05T17:21:33.781Z,12.00
2019-04-05T17:24:14.210Z,11.90
2019-04-05T17:26:54.319Z,11.80
2019-04-05T17:29:34.578Z,11.70
2019-04-05T17:32:14.645Z,11.80
2019-04-05T17:34:54.743Z,11.80
2019-04-05T17:37:34.986Z,11.50
2019-04-05T17:40:15.042Z,11.50
2019-04-05T17:42:55.653Z,11.50
2019-04-05T17:45:35.661Z,11.40
2019-04-05T17:48:15.826Z,11.40
2019-04-05T17:50:56.216Z,11.30
2019-04-05T17:53:36.342Z,11.20
2019-04-05T17:56:16.329Z,11.20
2019-04-05T17:58:56.317Z,11.20
2019-04-05T18:01:38.661Z,11.10
2019-04-05T18:04:18.474Z,11.40
2019-04-05T18:06:58.982Z,10.90
2019-04-05T18:09:41.386Z,10.90
2019-04-05T18:12:21.163Z,10.90
2019-04-05T18:15:02.142Z,10.80
2019-04-05T18:17:42.525Z,10.80
2019-04-05T18:20:22.476Z,10.80
2019-04-05T18:23:02.650Z,10.80
2019-04-05T18:25:42.544Z,10.80
2019-04-05T18:28:22.813Z,10.80
2019-04-05T18:31:06.255Z,10.80
2019-04-05T18:33:46.646Z,10.50
2019-04-05T18:36:29.967Z,10.80
2019-04-05T18:39:11.994Z,10.70
2019-04-05T18:41:51.746Z,10.70
2019-04-05T18:44:33.237Z,10.70
2019-04-05T18:47:13.034Z,10.70
2019-04-05T18:50:02.944Z,10.60
2019-04-05T18:52:35.287Z,10.50
2019-04-05T18:55:15.488Z,10.50
2019-04-05T18:57:55.907Z,10.50
2019-04-05T19:00:43.426Z,10.40
2019-04-05T19:03:11.166Z,10.30
2019-04-05T19:05:58.421Z,10.30
2019-04-05T19:08:45.839Z,10.20
2019-04-05T19:11:32.817Z,10.10
2019-04-05T19:14:20.212Z,10.30
2019-04-05T19:17:03.059Z,10.00
2019-04-05T19:19:43.212Z,9.80
2019-04-05T19:22:30.613Z,9.90
2019-04-05T19:25:10.853Z,9.80
2019-04-05T19:27:52.538Z,9.80
2019-04-05T19:49:22.726Z,9.40
2019-04-05T19:52:10.696Z,9.40
2019-04-05T19:54:38.370Z,9.30
2019-04-05T19:57:25.381Z,9.20
2019-04-05T20:00:12.510Z,9.10
2019-04-05T20:03:00.817Z,8.90
2019-04-05T20:05:47.831Z,8.90
2019-04-05T20:08:27.950Z,8.80
2019-04-05T20:11:08.253Z,8.80
2019-04-05T20:13:48.262Z,8.70
2019-04-05T20:19:09.279Z,8.60
2019-04-05T20:21:56.314Z,8.50
2019-04-05T20:24:35.981Z,8.30
2019-04-05T20:27:16.245Z,8.40
2019-04-05T20:29:56.424Z,8.40
2019-04-05T20:32:36.305Z,8.40
2019-04-05T20:35:18.010Z,8.40
2019-04-05T20:37:57.883Z,8.40
2019-04-05T20:40:37.989Z,8.60
2019-04-05T20:43:17.961Z,8.40
2019-04-05T20:45:58.210Z,8.30
2019-04-05T20:48:38.348Z,8.20
2019-04-05T20:51:18.291Z,8.10
2019-04-05T20:53:58.573Z,8.10
2019-04-05T20:56:38.821Z,8.10
2019-04-05T20:59:18.773Z,8.10
2019-04-05T21:01:58.695Z,8.10
2019-04-05T21:04:39.598Z,8.00
2019-04-05T21:07:20.023Z,7.90
2019-04-05T21:10:00.421Z,8.00
2019-04-05T21:12:40.263Z,7.80
2019-04-05T21:15:20.329Z,7.40
2019-04-05T21:18:00.869Z,7.90
2019-04-05T21:20:40.761Z,7.80
2019-04-05T21:23:20.851Z,7.80
2019-04-05T21:26:00.748Z,7.80
2019-04-05T21:28:40.789Z,7.80
2019-04-05T21:31:21.023Z,7.90
2019-04-05T21:34:01.177Z,7.80
2019-04-05T21:36:41.448Z,7.80
2019-04-05T21:39:21.776Z,7.80
2019-04-05T21:42:01.934Z,7.90
2019-04-05T21:44:42.060Z,7.80
2019-04-05T21:47:22.252Z,7.80
2019-04-05T21:50:02.606Z,7.80
2019-04-05T21:52:42.261Z,7.80
2019-04-05T21:55:22.441Z,7.80
2019-04-05T21:58:02.609Z,7.60
2019-04-05T22:03:39.894Z,7.60
2019-04-05T22:06:20.983Z,7.50
2019-04-05T22:09:01.223Z,7.70
2019-04-05T22:11:41.353Z,7.50
2019-04-05T22:14:08.945Z,7.50
2019-04-05T22:16:36.657Z,7.50
2019-04-05T22:19:04.479Z,7.50
2019-04-05T22:21:32.671Z,7.40
2019-04-05T22:24:19.759Z,7.40
2019-04-05T22:27:06.784Z,7.50
2019-04-05T22:29:46.854Z,7.50
2019-04-05T22:32:26.942Z,7.30
2019-04-05T22:38:06.265Z,7.30
2019-04-05T22:40:34.064Z,7.30
2019-04-05T22:43:21.108Z,7.20
2019-04-05T22:46:01.623Z,7.20
2019-04-05T22:48:41.610Z,7.20
2019-04-05T22:51:21.726Z,7.10
2019-04-05T22:54:01.832Z,7.10
2019-04-05T22:56:41.697Z,7.00
2019-04-05T22:59:22.017Z,7.10
2019-04-05T23:02:02.222Z,7.00
2019-04-05T23:04:42.228Z,7.00
2019-04-05T23:07:22.311Z,7.00
2019-04-05T23:10:02.484Z,6.90
2019-04-05T23:12:42.766Z,6.90
2019-04-05T23:15:22.755Z,6.90
2019-04-05T23:18:02.841Z,6.90
2019-04-05T23:20:42.973Z,6.80
2019-04-05T23:23:22.902Z,6.70
2019-04-05T23:26:03.154Z,6.70
2019-04-05T23:28:43.232Z,6.70
2019-04-05T23:31:23.455Z,6.60
2019-04-05T23:34:03.466Z,6.60
2019-04-05T23:36:44.159Z,6.60
2019-04-05T23:39:22.405Z,6.60
2019-04-05T23:42:03.019Z,6.60
2019-04-05T23:44:42.777Z,6.70
2019-04-05T23:47:22.864Z,6.60
2019-04-05T23:50:03.626Z,6.60
2019-04-05T23:52:43.369Z,6.50
2019-04-05T23:55:11.431Z,6.70
2019-04-05T23:57:59.635Z,6.40
